sensor_id;sensor_type;location;lat;lon;timestamp;temperature;humidity
21047;DHT22;10682;50.874;3.656;2023-02-15T00:00:06;0.90;99.90
21047;DHT22;10682;50.874;3.656;2023-02-15T00:02:37;0.90;99.90
21047;DHT22;10682;50.874;3.656;2023-02-15T00:05:04;0.90;99.90
21047;DHT22;10682;50.874;3.656;2023-02-15T00:07:32;0.90;99.90
21047;DHT22;10682;50.874;3.656;2023-02-15T00:09:59;0.90;99.90
21047;DHT22;10682;50.874;3.656;2023-02-15T00:12:26;0.90;99.90
21047;DHT22;10682;50.874;3.656;2023-02-15T00:14:53;0.90;99.90
21047;DHT22;10682;50.874;3.656;2023-02-15T00:17:20;0.90;99.90
21047;DHT22;10682;50.874;3.656;2023-02-15T00:19:47;0.90;99.90
21047;DHT22;10682;50.874;3.656;2023-02-15T00:22:14;0.80;99.90
21047;DHT22;10682;50.874;3.656;2023-02-15T00:24:41;0.80;99.90
21047;DHT22;10682;50.874;3.656;2023-02-15T00:27:08;0.70;99.90
21047;DHT22;10682;50.874;3.656;2023-02-15T00:29:35;0.80;99.90
21047;DHT22;10682;50.874;3.656;2023-02-15T00:32:03;0.70;99.90
21047;DHT22;10682;50.874;3.656;2023-02-15T00:34:30;0.70;99.90
21047;DHT22;10682;50.874;3.656;2023-02-15T00:36:57;0.60;99.90
21047;DHT22;10682;50.874;3.656;2023-02-15T00:39:24;0.60;99.90
21047;DHT22;10682;50.874;3.656;2023-02-15T00:41:52;0.50;99.90
21047;DHT22;10682;50.874;3.656;2023-02-15T00:44:19;0.40;99.90
21047;DHT22;10682;50.874;3.656;2023-02-15T00:46:46;0.40;99.90
21047;DHT22;10682;50.874;3.656;2023-02-15T00:49:13;0.30;99.90
21047;DHT22;10682;50.874;3.656;2023-02-15T00:51:40;0.30;99.90
21047;DHT22;10682;50.874;3.656;2023-02-15T00:54:07;0.20;99.90
21047;DHT22;10682;50.874;3.656;2023-02-15T00:56:34;0.10;99.90
21047;DHT22;10682;50.874;3.656;2023-02-15T00:59:01;0.10;99.90
21047;DHT22;10682;50.874;3.656;2023-02-15T01:01:29;0.10;99.90
21047;DHT22;10682;50.874;3.656;2023-02-15T01:03:56;0.10;99.90
21047;DHT22;10682;50.874;3.656;2023-02-15T01:06:23;0.10;99.90
21047;DHT22;10682;50.874;3.656;2023-02-15T01:08:50;0.20;99.90
21047;DHT22;10682;50.874;3.656;2023-02-15T01:11:20;0.40;99.90
21047;DHT22;10682;50.874;3.656;2023-02-15T01:13:52;0.50;99.90
21047;DHT22;10682;50.874;3.656;2023-02-15T01:16:22;0.60;99.90
21047;DHT22;10682;50.874;3.656;2023-02-15T01:18:50;0.60;99.90
21047;DHT22;10682;50.874;3.656;2023-02-15T01:21:19;0.70;99.90
21047;DHT22;10682;50.874;3.656;2023-02-15T01:23:48;0.70;99.90
21047;DHT22;10682;50.874;3.656;2023-02-15T01:26:16;0.70;99.90
21047;DHT22;10682;50.874;3.656;2023-02-15T01:28:43;0.80;99.90
21047;DHT22;10682;50.874;3.656;2023-02-15T01:31:16;0.70;99.90
21047;DHT22;10682;50.874;3.656;2023-02-15T01:33:46;0.60;99.90
21047;DHT22;10682;50.874;3.656;2023-02-15T01:36:14;0.60;99.90
21047;DHT22;10682;50.874;3.656;2023-02-15T01:38:44;0.50;99.90
21047;DHT22;10682;50.874;3.656;2023-02-15T01:41:11;0.50;99.90
21047;DHT22;10682;50.874;3.656;2023-02-15T01:43:58;0.50;99.90
21047;DHT22;10682;50.874;3.656;2023-02-15T01:46:49;0.50;99.90
21047;DHT22;10682;50.874;3.656;2023-02-15T01:49:21;0.40;99.90
21047;DHT22;10682;50.874;3.656;2023-02-15T01:51:51;0.30;99.90
21047;DHT22;10682;50.874;3.656;2023-02-15T01:54:25;0.30;99.90
21047;DHT22;10682;50.874;3.656;2023-02-15T01:56:59;0.20;99.90
21047;DHT22;10682;50.874;3.656;2023-02-15T01:59:29;0.20;99.90
21047;DHT22;10682;50.874;3.656;2023-02-15T02:01:59;0.10;99.90
21047;DHT22;10682;50.874;3.656;2023-02-15T02:04:41;0.10;99.90
21047;DHT22;10682;50.874;3.656;2023-02-15T02:07:14;0.00;99.90
21047;DHT22;10682;50.874;3.656;2023-02-15T02:09:45;0.00;99.90
21047;DHT22;10682;50.874;3.656;2023-02-15T02:12:12;0.00;99.90
21047;DHT22;10682;50.874;3.656;2023-02-15T02:14:41;0.00;99.90
21047;DHT22;10682;50.874;3.656;2023-02-15T02:23:40;0.10;99.90
21047;DHT22;10682;50.874;3.656;2023-02-15T02:34:58;0.00;99.90
21047;DHT22;10682;50.874;3.656;2023-02-15T02:37:36;-0.10;99.90
21047;DHT22;10682;50.874;3.656;2023-02-15T02:40:20;-0.10;99.90
21047;DHT22;10682;50.874;3.656;2023-02-15T02:43:17;-0.10;99.90
21047;DHT22;10682;50.874;3.656;2023-02-15T02:46:07;-0.10;99.90
21047;DHT22;10682;50.874;3.656;2023-02-15T02:48:37;-0.10;99.90
21047;DHT22;10682;50.874;3.656;2023-02-15T02:51:05;-0.20;99.90
21047;DHT22;10682;50.874;3.656;2023-02-15T02:53:32;-0.20;99.90
21047;DHT22;10682;50.874;3.656;2023-02-15T02:56:12;-0.20;99.90
21047;DHT22;10682;50.874;3.656;2023-02-15T02:58:48;-0.20;99.90
21047;DHT22;10682;50.874;3.656;2023-02-15T03:01:44;-0.20;99.90
21047;DHT22;10682;50.874;3.656;2023-02-15T03:04:26;-0.20;99.90
21047;DHT22;10682;50.874;3.656;2023-02-15T03:06:58;-0.20;99.90
21047;DHT22;10682;50.874;3.656;2023-02-15T03:09:44;-0.30;99.90
21047;DHT22;10682;50.874;3.656;2023-02-15T03:12:23;-0.30;99.90
21047;DHT22;10682;50.874;3.656;2023-02-15T03:15:08;-0.30;99.90
21047;DHT22;10682;50.874;3.656;2023-02-15T03:17:41;-0.30;99.90
21047;DHT22;10682;50.874;3.656;2023-02-15T03:20:18;-0.30;99.90
21047;DHT22;10682;50.874;3.656;2023-02-15T03:22:53;-0.40;99.90
21047;DHT22;10682;50.874;3.656;2023-02-15T03:25:38;-0.40;99.90
21047;DHT22;10682;50.874;3.656;2023-02-15T03:28:09;-0.40;99.90
21047;DHT22;10682;50.874;3.656;2023-02-15T03:30:41;-0.40;99.90
21047;DHT22;10682;50.874;3.656;2023-02-15T03:33:09;-0.40;99.90
21047;DHT22;10682;50.874;3.656;2023-02-15T03:36:20;-0.40;99.90
21047;DHT22;10682;50.874;3.656;2023-02-15T03:39:59;-0.50;99.90
21047;DHT22;10682;50.874;3.656;2023-02-15T03:42:32;-0.50;99.90
21047;DHT22;10682;50.874;3.656;2023-02-15T03:45:13;-0.50;99.90
21047;DHT22;10682;50.874;3.656;2023-02-15T03:47:47;-0.50;99.90
21047;DHT22;10682;50.874;3.656;2023-02-15T03:50:17;-0.50;99.90
21047;DHT22;10682;50.874;3.656;2023-02-15T03:53:07;-0.50;99.90
21047;DHT22;10682;50.874;3.656;2023-02-15T03:55:37;-0.50;99.90
21047;DHT22;10682;50.874;3.656;2023-02-15T03:58:04;-0.50;99.90
21047;DHT22;10682;50.874;3.656;2023-02-15T04:00:57;-0.50;99.90
21047;DHT22;10682;50.874;3.656;2023-02-15T04:03:51;-0.60;99.90
21047;DHT22;10682;50.874;3.656;2023-02-15T04:06:20;-0.60;99.90
21047;DHT22;10682;50.874;3.656;2023-02-15T04:08:47;-0.50;99.90
21047;DHT22;10682;50.874;3.656;2023-02-15T04:11:33;-0.40;99.90
21047;DHT22;10682;50.874;3.656;2023-02-15T04:14:00;-0.30;99.90
21047;DHT22;10682;50.874;3.656;2023-02-15T04:16:47;-0.20;99.90
21047;DHT22;10682;50.874;3.656;2023-02-15T04:19:14;-0.20;99.90
21047;DHT22;10682;50.874;3.656;2023-02-15T04:21:59;-0.20;99.90
21047;DHT22;10682;50.874;3.656;2023-02-15T04:24:45;-0.20;99.90
21047;DHT22;10682;50.874;3.656;2023-02-15T04:27:31;-0.20;99.90
21047;DHT22;10682;50.874;3.656;2023-02-15T04:29:58;-0.20;99.90
21047;DHT22;10682;50.874;3.656;2023-02-15T04:32:25;-0.30;99.90
21047;DHT22;10682;50.874;3.656;2023-02-15T04:34:52;-0.30;99.90
21047;DHT22;10682;50.874;3.656;2023-02-15T04:37:19;-0.40;99.90
21047;DHT22;10682;50.874;3.656;2023-02-15T04:39:46;-0.50;99.90
21047;DHT22;10682;50.874;3.656;2023-02-15T04:42:13;-0.50;99.90
21047;DHT22;10682;50.874;3.656;2023-02-15T04:44:40;-0.50;99.90
21047;DHT22;10682;50.874;3.656;2023-02-15T04:47:08;-0.50;99.90
21047;DHT22;10682;50.874;3.656;2023-02-15T04:49:35;-0.60;99.90
21047;DHT22;10682;50.874;3.656;2023-02-15T04:52:02;-0.60;99.90
21047;DHT22;10682;50.874;3.656;2023-02-15T04:54:29;-0.60;99.90
21047;DHT22;10682;50.874;3.656;2023-02-15T04:56:56;-0.60;99.90
21047;DHT22;10682;50.874;3.656;2023-02-15T04:59:23;-0.60;99.90
21047;DHT22;10682;50.874;3.656;2023-02-15T05:01:50;-0.60;99.90
21047;DHT22;10682;50.874;3.656;2023-02-15T05:04:17;-0.60;99.90
21047;DHT22;10682;50.874;3.656;2023-02-15T05:06:44;-0.60;99.90
21047;DHT22;10682;50.874;3.656;2023-02-15T05:09:12;-0.60;99.90
21047;DHT22;10682;50.874;3.656;2023-02-15T05:11:39;-0.60;99.90
21047;DHT22;10682;50.874;3.656;2023-02-15T05:14:06;-0.50;99.90
21047;DHT22;10682;50.874;3.656;2023-02-15T05:16:34;-0.50;99.90
21047;DHT22;10682;50.874;3.656;2023-02-15T05:19:01;-0.50;99.90
21047;DHT22;10682;50.874;3.656;2023-02-15T05:21:28;-0.40;99.90
21047;DHT22;10682;50.874;3.656;2023-02-15T05:23:55;-0.40;99.90
21047;DHT22;10682;50.874;3.656;2023-02-15T05:26:24;-0.40;99.90
21047;DHT22;10682;50.874;3.656;2023-02-15T05:29:10;-0.40;99.90
21047;DHT22;10682;50.874;3.656;2023-02-15T05:31:37;-0.40;99.90
21047;DHT22;10682;50.874;3.656;2023-02-15T05:34:05;-0.40;99.90
21047;DHT22;10682;50.874;3.656;2023-02-15T05:36:32;-0.50;99.90
21047;DHT22;10682;50.874;3.656;2023-02-15T05:38:59;-0.50;99.90
21047;DHT22;10682;50.874;3.656;2023-02-15T05:41:25;-0.50;99.90
21047;DHT22;10682;50.874;3.656;2023-02-15T05:43:55;-0.60;99.90
21047;DHT22;10682;50.874;3.656;2023-02-15T05:46:23;-0.60;99.90
21047;DHT22;10682;50.874;3.656;2023-02-15T05:48:50;-0.60;99.90
21047;DHT22;10682;50.874;3.656;2023-02-15T05:51:17;-0.60;99.90
21047;DHT22;10682;50.874;3.656;2023-02-15T05:53:44;-0.70;99.90
21047;DHT22;10682;50.874;3.656;2023-02-15T05:56:12;-0.70;99.90
21047;DHT22;10682;50.874;3.656;2023-02-15T05:58:41;-0.70;99.90
21047;DHT22;10682;50.874;3.656;2023-02-15T06:03:40;-0.80;99.90
21047;DHT22;10682;50.874;3.656;2023-02-15T06:06:08;-0.80;99.90
21047;DHT22;10682;50.874;3.656;2023-02-15T06:08:36;-0.80;99.90
21047;DHT22;10682;50.874;3.656;2023-02-15T06:11:04;-0.80;99.90
21047;DHT22;10682;50.874;3.656;2023-02-15T06:13:33;-0.80;99.90
21047;DHT22;10682;50.874;3.656;2023-02-15T06:16:04;-0.80;99.90
21047;DHT22;10682;50.874;3.656;2023-02-15T06:18:32;-0.70;99.90
21047;DHT22;10682;50.874;3.656;2023-02-15T06:21:00;-0.70;99.90
21047;DHT22;10682;50.874;3.656;2023-02-15T06:23:27;-0.70;99.90
21047;DHT22;10682;50.874;3.656;2023-02-15T06:25:55;-0.70;99.90
21047;DHT22;10682;50.874;3.656;2023-02-15T06:28:22;-0.60;99.90
21047;DHT22;10682;50.874;3.656;2023-02-15T06:30:49;-0.60;99.90
21047;DHT22;10682;50.874;3.656;2023-02-15T06:33:16;-0.60;99.90
21047;DHT22;10682;50.874;3.656;2023-02-15T06:35:44;-0.60;99.90
21047;DHT22;10682;50.874;3.656;2023-02-15T06:38:12;-0.60;99.90
21047;DHT22;10682;50.874;3.656;2023-02-15T06:40:40;-0.60;99.90
21047;DHT22;10682;50.874;3.656;2023-02-15T06:43:07;-0.60;99.90
21047;DHT22;10682;50.874;3.656;2023-02-15T06:45:34;-0.60;99.90
21047;DHT22;10682;50.874;3.656;2023-02-15T06:48:01;-0.60;99.90
21047;DHT22;10682;50.874;3.656;2023-02-15T06:50:28;-0.60;99.90
21047;DHT22;10682;50.874;3.656;2023-02-15T06:52:59;-0.60;99.90
21047;DHT22;10682;50.874;3.656;2023-02-15T06:55:26;-0.50;99.90
21047;DHT22;10682;50.874;3.656;2023-02-15T06:57:53;-0.50;99.90
21047;DHT22;10682;50.874;3.656;2023-02-15T07:00:21;-0.40;99.90
21047;DHT22;10682;50.874;3.656;2023-02-15T07:02:57;-0.30;99.90
21047;DHT22;10682;50.874;3.656;2023-02-15T07:05:26;-0.30;99.90
21047;DHT22;10682;50.874;3.656;2023-02-15T07:07:58;-0.30;99.90
21047;DHT22;10682;50.874;3.656;2023-02-15T07:10:26;-0.20;99.90
21047;DHT22;10682;50.874;3.656;2023-02-15T07:12:54;-0.20;99.90
21047;DHT22;10682;50.874;3.656;2023-02-15T07:15:21;-0.10;99.90
21047;DHT22;10682;50.874;3.656;2023-02-15T07:17:48;-0.10;99.90
21047;DHT22;10682;50.874;3.656;2023-02-15T07:20:21;-0.10;99.90
21047;DHT22;10682;50.874;3.656;2023-02-15T07:22:49;0.00;99.90
21047;DHT22;10682;50.874;3.656;2023-02-15T07:25:17;0.10;99.90
21047;DHT22;10682;50.874;3.656;2023-02-15T07:27:45;0.10;99.90
21047;DHT22;10682;50.874;3.656;2023-02-15T07:30:19;0.20;99.90
21047;DHT22;10682;50.874;3.656;2023-02-15T07:32:46;0.30;99.90
21047;DHT22;10682;50.874;3.656;2023-02-15T07:35:32;0.30;99.90
21047;DHT22;10682;50.874;3.656;2023-02-15T07:38:00;0.40;99.90
21047;DHT22;10682;50.874;3.656;2023-02-15T07:40:27;0.50;99.90
21047;DHT22;10682;50.874;3.656;2023-02-15T07:42:57;0.50;99.90
21047;DHT22;10682;50.874;3.656;2023-02-15T07:45:25;0.60;99.90
21047;DHT22;10682;50.874;3.656;2023-02-15T07:47:53;0.60;99.90
21047;DHT22;10682;50.874;3.656;2023-02-15T07:50:20;0.70;99.90
21047;DHT22;10682;50.874;3.656;2023-02-15T07:52:47;0.90;99.90
21047;DHT22;10682;50.874;3.656;2023-02-15T07:55:14;1.00;99.90
21047;DHT22;10682;50.874;3.656;2023-02-15T07:57:45;1.10;99.90
21047;DHT22;10682;50.874;3.656;2023-02-15T08:00:14;1.20;99.90
21047;DHT22;10682;50.874;3.656;2023-02-15T08:02:51;1.30;99.90
21047;DHT22;10682;50.874;3.656;2023-02-15T08:05:44;1.40;99.90
21047;DHT22;10682;50.874;3.656;2023-02-15T08:08:12;1.60;99.90
21047;DHT22;10682;50.874;3.656;2023-02-15T08:10:58;1.70;99.90
21047;DHT22;10682;50.874;3.656;2023-02-15T08:13:45;1.90;99.90
21047;DHT22;10682;50.874;3.656;2023-02-15T08:16:41;2.20;99.90
21047;DHT22;10682;50.874;3.656;2023-02-15T08:19:10;2.50;99.90
21047;DHT22;10682;50.874;3.656;2023-02-15T08:21:47;2.90;99.90
21047;DHT22;10682;50.874;3.656;2023-02-15T08:24:18;3.40;99.90
21047;DHT22;10682;50.874;3.656;2023-02-15T08:26:47;4.00;99.90
21047;DHT22;10682;50.874;3.656;2023-02-15T08:29:16;4.30;99.90
21047;DHT22;10682;50.874;3.656;2023-02-15T08:31:50;4.60;99.90
21047;DHT22;10682;50.874;3.656;2023-02-15T08:34:20;4.80;99.90
21047;DHT22;10682;50.874;3.656;2023-02-15T08:36:48;5.20;99.90
21047;DHT22;10682;50.874;3.656;2023-02-15T08:39:15;5.50;99.90
21047;DHT22;10682;50.874;3.656;2023-02-15T08:41:44;5.90;99.90
21047;DHT22;10682;50.874;3.656;2023-02-15T08:44:15;6.10;99.90
21047;DHT22;10682;50.874;3.656;2023-02-15T08:46:44;6.30;99.90
21047;DHT22;10682;50.874;3.656;2023-02-15T08:49:20;6.60;99.90
21047;DHT22;10682;50.874;3.656;2023-02-15T08:51:48;6.90;99.90
21047;DHT22;10682;50.874;3.656;2023-02-15T08:54:19;7.20;99.90
21047;DHT22;10682;50.874;3.656;2023-02-15T08:56:47;7.50;99.90
21047;DHT22;10682;50.874;3.656;2023-02-15T08:59:20;7.80;99.90
21047;DHT22;10682;50.874;3.656;2023-02-15T09:01:49;8.20;99.90
21047;DHT22;10682;50.874;3.656;2023-02-15T09:04:18;8.30;99.90
21047;DHT22;10682;50.874;3.656;2023-02-15T09:06:47;8.60;99.90
21047;DHT22;10682;50.874;3.656;2023-02-15T09:09:16;8.80;99.90
21047;DHT22;10682;50.874;3.656;2023-02-15T09:11:46;9.10;99.90
21047;DHT22;10682;50.874;3.656;2023-02-15T09:14:17;9.30;99.90
21047;DHT22;10682;50.874;3.656;2023-02-15T09:16:47;9.50;99.90
21047;DHT22;10682;50.874;3.656;2023-02-15T09:19:19;9.50;99.90
21047;DHT22;10682;50.874;3.656;2023-02-15T09:21:47;9.60;99.90
21047;DHT22;10682;50.874;3.656;2023-02-15T09:24:16;9.90;99.90
21047;DHT22;10682;50.874;3.656;2023-02-15T09:26:45;10.20;99.90
21047;DHT22;10682;50.874;3.656;2023-02-15T09:29:14;10.50;99.90
21047;DHT22;10682;50.874;3.656;2023-02-15T09:31:44;10.70;99.90
21047;DHT22;10682;50.874;3.656;2023-02-15T09:34:14;10.70;99.90
21047;DHT22;10682;50.874;3.656;2023-02-15T09:36:45;10.50;99.90
21047;DHT22;10682;50.874;3.656;2023-02-15T09:39:24;10.40;99.90
21047;DHT22;10682;50.874;3.656;2023-02-15T09:56:53;10.60;99.90
21047;DHT22;10682;50.874;3.656;2023-02-15T10:11:16;10.50;99.90
21047;DHT22;10682;50.874;3.656;2023-02-15T10:14:31;10.50;99.90
21047;DHT22;10682;50.874;3.656;2023-02-15T10:23:21;10.50;99.90
21047;DHT22;10682;50.874;3.656;2023-02-15T10:34:15;10.90;99.90
21047;DHT22;10682;50.874;3.656;2023-02-15T10:36:59;11.00;99.90
21047;DHT22;10682;50.874;3.656;2023-02-15T10:48:56;11.00;99.90
21047;DHT22;10682;50.874;3.656;2023-02-15T10:57:42;10.80;99.90
21047;DHT22;10682;50.874;3.656;2023-02-15T11:06:34;11.00;99.90
21047;DHT22;10682;50.874;3.656;2023-02-15T11:09:09;10.90;99.90
21047;DHT22;10682;50.874;3.656;2023-02-15T11:11:41;10.90;99.90
21047;DHT22;10682;50.874;3.656;2023-02-15T11:14:21;11.00;99.90
21047;DHT22;10682;50.874;3.656;2023-02-15T11:16:59;11.10;99.90
21047;DHT22;10682;50.874;3.656;2023-02-15T11:19:36;11.50;99.90
21047;DHT22;10682;50.874;3.656;2023-02-15T11:22:09;11.80;99.90
21047;DHT22;10682;50.874;3.656;2023-02-15T11:24:44;11.80;99.90
21047;DHT22;10682;50.874;3.656;2023-02-15T11:27:25;11.90;99.90
21047;DHT22;10682;50.874;3.656;2023-02-15T11:30:01;12.00;99.90
21047;DHT22;10682;50.874;3.656;2023-02-15T11:32:44;11.90;99.90
21047;DHT22;10682;50.874;3.656;2023-02-15T11:41:09;12.00;99.90
21047;DHT22;10682;50.874;3.656;2023-02-15T11:46:25;12.20;99.90
21047;DHT22;10682;50.874;3.656;2023-02-15T11:48:52;12.20;99.90
21047;DHT22;10682;50.874;3.656;2023-02-15T11:51:21;12.30;99.90
21047;DHT22;10682;50.874;3.656;2023-02-15T11:53:50;12.50;99.90
21047;DHT22;10682;50.874;3.656;2023-02-15T11:56:22;12.70;99.90
21047;DHT22;10682;50.874;3.656;2023-02-15T11:59:03;12.90;99.90
21047;DHT22;10682;50.874;3.656;2023-02-15T12:01:37;13.00;99.90
21047;DHT22;10682;50.874;3.656;2023-02-15T12:04:36;12.90;99.90
21047;DHT22;10682;50.874;3.656;2023-02-15T12:07:17;12.80;99.90
21047;DHT22;10682;50.874;3.656;2023-02-15T12:12:34;12.60;99.90
21047;DHT22;10682;50.874;3.656;2023-02-15T12:15:05;12.50;99.90
21047;DHT22;10682;50.874;3.656;2023-02-15T12:17:51;12.60;99.90
21047;DHT22;10682;50.874;3.656;2023-02-15T12:22:53;12.60;99.90
21047;DHT22;10682;50.874;3.656;2023-02-15T12:25:26;12.60;99.90
21047;DHT22;10682;50.874;3.656;2023-02-15T12:27:59;12.50;99.90
21047;DHT22;10682;50.874;3.656;2023-02-15T12:30:30;12.40;99.90
21047;DHT22;10682;50.874;3.656;2023-02-15T12:33:17;12.40;99.90
21047;DHT22;10682;50.874;3.656;2023-02-15T12:35:57;12.40;99.90
21047;DHT22;10682;50.874;3.656;2023-02-15T12:38:37;12.30;99.90
21047;DHT22;10682;50.874;3.656;2023-02-15T12:46:41;12.40;99.90
21047;DHT22;10682;50.874;3.656;2023-02-15T12:49:19;12.30;99.90
21047;DHT22;10682;50.874;3.656;2023-02-15T12:51:55;12.50;99.90
21047;DHT22;10682;50.874;3.656;2023-02-15T12:54:29;12.40;99.90
21047;DHT22;10682;50.874;3.656;2023-02-15T12:56:57;12.60;99.90
21047;DHT22;10682;50.874;3.656;2023-02-15T12:59:25;12.50;99.90
21047;DHT22;10682;50.874;3.656;2023-02-15T13:01:52;12.60;99.90
21047;DHT22;10682;50.874;3.656;2023-02-15T13:06:58;12.70;99.90
21047;DHT22;10682;50.874;3.656;2023-02-15T13:14:49;12.40;99.90
21047;DHT22;10682;50.874;3.656;2023-02-15T13:17:26;12.50;99.90
21047;DHT22;10682;50.874;3.656;2023-02-15T13:20:00;12.60;99.90
21047;DHT22;10682;50.874;3.656;2023-02-15T13:22:38;12.40;99.90
21047;DHT22;10682;50.874;3.656;2023-02-15T13:25:19;12.50;99.90
21047;DHT22;10682;50.874;3.656;2023-02-15T13:27:57;12.50;99.90
21047;DHT22;10682;50.874;3.656;2023-02-15T13:30:34;12.70;99.90
21047;DHT22;10682;50.874;3.656;2023-02-15T13:33:17;12.60;99.90
21047;DHT22;10682;50.874;3.656;2023-02-15T13:36:03;12.70;99.90
21047;DHT22;10682;50.874;3.656;2023-02-15T13:41:30;12.70;99.90
21047;DHT22;10682;50.874;3.656;2023-02-15T13:55:51;12.80;99.90
21047;DHT22;10682;50.874;3.656;2023-02-15T14:01:46;12.90;99.90
21047;DHT22;10682;50.874;3.656;2023-02-15T14:19:04;12.80;99.90
21047;DHT22;10682;50.874;3.656;2023-02-15T14:21:50;12.80;99.90
21047;DHT22;10682;50.874;3.656;2023-02-15T14:24:39;12.80;99.90
21047;DHT22;10682;50.874;3.656;2023-02-15T14:30:20;12.60;99.90
21047;DHT22;10682;50.874;3.656;2023-02-15T14:33:06;12.50;99.90
21047;DHT22;10682;50.874;3.656;2023-02-15T14:35:36;12.50;99.90
21047;DHT22;10682;50.874;3.656;2023-02-15T14:38:26;12.50;99.90
21047;DHT22;10682;50.874;3.656;2023-02-15T14:41:07;12.40;99.90
21047;DHT22;10682;50.874;3.656;2023-02-15T14:44:27;12.40;99.90
21047;DHT22;10682;50.874;3.656;2023-02-15T14:47:19;12.40;99.90
21047;DHT22;10682;50.874;3.656;2023-02-15T14:49:52;12.30;99.90
21047;DHT22;10682;50.874;3.656;2023-02-15T14:52:19;12.30;99.90
21047;DHT22;10682;50.874;3.656;2023-02-15T15:02:26;12.10;99.90
21047;DHT22;10682;50.874;3.656;2023-02-15T15:07:54;12.00;99.90
21047;DHT22;10682;50.874;3.656;2023-02-15T15:18:58;11.80;99.90
21047;DHT22;10682;50.874;3.656;2023-02-15T15:21:55;11.80;99.90
21047;DHT22;10682;50.874;3.656;2023-02-15T15:40:52;11.40;99.90
21047;DHT22;10682;50.874;3.656;2023-02-15T15:49:16;11.30;99.90
21047;DHT22;10682;50.874;3.656;2023-02-15T15:51:45;11.20;99.90
21047;DHT22;10682;50.874;3.656;2023-02-15T15:54:22;11.20;99.90
21047;DHT22;10682;50.874;3.656;2023-02-15T15:57:03;11.20;99.90
21047;DHT22;10682;50.874;3.656;2023-02-15T15:59:32;11.20;99.90
21047;DHT22;10682;50.874;3.656;2023-02-15T16:02:09;11.10;99.90
21047;DHT22;10682;50.874;3.656;2023-02-15T16:04:39;11.10;99.90
21047;DHT22;10682;50.874;3.656;2023-02-15T16:10:02;10.90;99.90
21047;DHT22;10682;50.874;3.656;2023-02-15T16:12:35;10.90;99.90
21047;DHT22;10682;50.874;3.656;2023-02-15T16:18:16;10.90;99.90
21047;DHT22;10682;50.874;3.656;2023-02-15T16:21:01;10.90;99.90
21047;DHT22;10682;50.874;3.656;2023-02-15T16:29:30;10.70;99.90
21047;DHT22;10682;50.874;3.656;2023-02-15T16:32:14;10.70;99.90
21047;DHT22;10682;50.874;3.656;2023-02-15T16:34:58;10.70;99.90
21047;DHT22;10682;50.874;3.656;2023-02-15T16:37:34;10.60;99.90
21047;DHT22;10682;50.874;3.656;2023-02-15T16:40:01;10.60;99.90
21047;DHT22;10682;50.874;3.656;2023-02-15T16:42:29;10.60;99.90
21047;DHT22;10682;50.874;3.656;2023-02-15T16:45:13;10.50;99.90
21047;DHT22;10682;50.874;3.656;2023-02-15T16:47:46;10.50;99.90
21047;DHT22;10682;50.874;3.656;2023-02-15T16:50:20;10.40;99.90
21047;DHT22;10682;50.874;3.656;2023-02-15T16:52:51;10.40;99.90
21047;DHT22;10682;50.874;3.656;2023-02-15T16:55:28;10.40;99.90
21047;DHT22;10682;50.874;3.656;2023-02-15T16:58:06;10.40;99.90
21047;DHT22;10682;50.874;3.656;2023-02-15T17:00:38;10.30;99.90
21047;DHT22;10682;50.874;3.656;2023-02-15T17:05:44;10.10;99.90
21047;DHT22;10682;50.874;3.656;2023-02-15T17:08:18;10.00;99.90
21047;DHT22;10682;50.874;3.656;2023-02-15T17:13:26;9.80;99.90
21047;DHT22;10682;50.874;3.656;2023-02-15T17:18:38;9.70;99.90
21047;DHT22;10682;50.874;3.656;2023-02-15T17:21:13;9.70;99.90
21047;DHT22;10682;50.874;3.656;2023-02-15T17:23:49;9.80;99.90
21047;DHT22;10682;50.874;3.656;2023-02-15T17:26:23;9.80;99.90
21047;DHT22;10682;50.874;3.656;2023-02-15T17:28:55;9.80;99.90
21047;DHT22;10682;50.874;3.656;2023-02-15T17:31:26;9.80;99.90
21047;DHT22;10682;50.874;3.656;2023-02-15T17:33:56;9.80;99.90
21047;DHT22;10682;50.874;3.656;2023-02-15T17:36:26;9.80;99.90
21047;DHT22;10682;50.874;3.656;2023-02-15T17:39:04;9.80;99.90
21047;DHT22;10682;50.874;3.656;2023-02-15T17:41:35;9.80;99.90
21047;DHT22;10682;50.874;3.656;2023-02-15T17:44:04;9.80;99.90
21047;DHT22;10682;50.874;3.656;2023-02-15T17:46:36;9.70;99.90
21047;DHT22;10682;50.874;3.656;2023-02-15T17:49:04;9.70;99.90
21047;DHT22;10682;50.874;3.656;2023-02-15T17:51:32;9.60;99.90
21047;DHT22;10682;50.874;3.656;2023-02-15T17:54:02;9.50;99.90
21047;DHT22;10682;50.874;3.656;2023-02-15T17:56:47;9.50;99.90
21047;DHT22;10682;50.874;3.656;2023-02-15T17:59:14;9.40;99.90
21047;DHT22;10682;50.874;3.656;2023-02-15T18:01:47;9.30;99.90
21047;DHT22;10682;50.874;3.656;2023-02-15T18:04:35;9.20;99.90
21047;DHT22;10682;50.874;3.656;2023-02-15T18:07:21;9.30;99.90
21047;DHT22;10682;50.874;3.656;2023-02-15T18:10:18;9.30;99.90
21047;DHT22;10682;50.874;3.656;2023-02-15T18:13:04;9.30;99.90
21047;DHT22;10682;50.874;3.656;2023-02-15T18:15:31;9.30;99.90
21047;DHT22;10682;50.874;3.656;2023-02-15T18:17:58;9.20;99.90
21047;DHT22;10682;50.874;3.656;2023-02-15T18:20:33;9.20;99.90
21047;DHT22;10682;50.874;3.656;2023-02-15T18:23:02;9.20;99.90
21047;DHT22;10682;50.874;3.656;2023-02-15T18:25:29;9.10;99.90
21047;DHT22;10682;50.874;3.656;2023-02-15T18:27:56;9.10;99.90
21047;DHT22;10682;50.874;3.656;2023-02-15T18:30:24;9.10;99.90
21047;DHT22;10682;50.874;3.656;2023-02-15T18:32:55;9.00;99.90
21047;DHT22;10682;50.874;3.656;2023-02-15T18:35:26;9.00;99.90
21047;DHT22;10682;50.874;3.656;2023-02-15T18:37:55;9.10;99.90
21047;DHT22;10682;50.874;3.656;2023-02-15T18:40:25;9.00;99.90
21047;DHT22;10682;50.874;3.656;2023-02-15T18:42:53;9.00;99.90
21047;DHT22;10682;50.874;3.656;2023-02-15T18:45:25;8.90;99.90
21047;DHT22;10682;50.874;3.656;2023-02-15T18:47:54;8.90;99.90
21047;DHT22;10682;50.874;3.656;2023-02-15T18:50:22;8.80;99.90
21047;DHT22;10682;50.874;3.656;2023-02-15T18:53:05;8.70;99.90
21047;DHT22;10682;50.874;3.656;2023-02-15T18:55:36;8.70;99.90
21047;DHT22;10682;50.874;3.656;2023-02-15T18:58:03;8.70;99.90
21047;DHT22;10682;50.874;3.656;2023-02-15T19:00:32;8.70;99.90
21047;DHT22;10682;50.874;3.656;2023-02-15T19:03:01;8.70;99.90
21047;DHT22;10682;50.874;3.656;2023-02-15T19:05:29;8.60;99.90
21047;DHT22;10682;50.874;3.656;2023-02-15T19:07:58;8.50;99.90
21047;DHT22;10682;50.874;3.656;2023-02-15T19:10:28;8.40;99.90
21047;DHT22;10682;50.874;3.656;2023-02-15T19:12:57;8.40;99.90
21047;DHT22;10682;50.874;3.656;2023-02-15T19:15:26;8.30;99.90
21047;DHT22;10682;50.874;3.656;2023-02-15T19:17:56;8.20;99.90
21047;DHT22;10682;50.874;3.656;2023-02-15T19:20:36;8.10;99.90
21047;DHT22;10682;50.874;3.656;2023-02-15T19:23:14;8.10;99.90
21047;DHT22;10682;50.874;3.656;2023-02-15T19:25:45;8.00;99.90
21047;DHT22;10682;50.874;3.656;2023-02-15T19:28:16;8.00;99.90
21047;DHT22;10682;50.874;3.656;2023-02-15T19:30:44;7.90;99.90
21047;DHT22;10682;50.874;3.656;2023-02-15T19:33:19;7.90;99.90
21047;DHT22;10682;50.874;3.656;2023-02-15T19:35:49;7.80;99.90
21047;DHT22;10682;50.874;3.656;2023-02-15T19:38:23;7.80;99.90